createdAt,value
2023-01-17T00:00:21.796Z,8.30
2023-01-17T00:01:21.706Z,9.20
2023-01-17T00:02:21.792Z,8.30
2023-01-17T00:03:21.705Z,7.60
2023-01-17T00:04:21.675Z,8.30
2023-01-17T00:05:21.692Z,8.20
2023-01-17T00:06:21.662Z,8.30
2023-01-17T00:07:21.632Z,8.10
2023-01-17T00:08:21.704Z,7.80
2023-01-17T00:09:21.615Z,8.40
2023-01-17T00:10:21.650Z,8.40
2023-01-17T00:11:21.596Z,8.50
2023-01-17T00:12:21.595Z,8.20
2023-01-17T00:13:21.613Z,8.50
2023-01-17T00:14:21.594Z,8.40
2023-01-17T00:15:21.550Z,8.20
2023-01-17T00:16:21.612Z,9.10
2023-01-17T00:17:21.561Z,9.10
2023-01-17T00:18:21.546Z,9.20
2023-01-17T00:19:21.513Z,9.50
2023-01-17T00:20:21.529Z,9.30
2023-01-17T00:21:21.483Z,9.40
2023-01-17T00:22:21.490Z,9.40
2023-01-17T00:23:21.490Z,9.30
2023-01-17T00:24:21.463Z,9.80
2023-01-17T00:25:21.448Z,10.00
2023-01-17T00:26:21.440Z,10.80
2023-01-17T00:27:21.431Z,10.00
2023-01-17T00:28:21.457Z,10.40
2023-01-17T00:29:21.393Z,11.60
2023-01-17T00:30:21.377Z,10.90
2023-01-17T00:31:21.391Z,10.80
2023-01-17T00:32:21.378Z,11.00
2023-01-17T00:33:21.364Z,12.70
2023-01-17T00:34:21.331Z,11.00
2023-01-17T00:35:21.317Z,11.30
2023-01-17T00:36:21.310Z,11.30
2023-01-17T00:37:21.319Z,10.50
2023-01-17T00:38:21.322Z,13.00
2023-01-17T00:39:21.277Z,11.50
2023-01-17T00:40:21.277Z,10.70
2023-01-17T00:41:21.249Z,12.40
2023-01-17T00:42:21.239Z,11.10
2023-01-17T00:43:21.252Z,10.80
2023-01-17T00:44:21.221Z,10.70
2023-01-17T00:45:21.203Z,10.90
2023-01-17T00:46:21.215Z,12.10
2023-01-17T00:47:21.183Z,10.80
2023-01-17T00:48:21.211Z,10.90
2023-01-17T00:49:21.168Z,10.50
2023-01-17T00:50:21.147Z,10.40
2023-01-17T00:51:21.135Z,9.90
2023-01-17T00:52:21.132Z,9.50
2023-01-17T00:53:21.112Z,9.80
2023-01-17T00:54:21.131Z,10.00
2023-01-17T00:55:21.102Z,10.60
2023-01-17T00:56:21.083Z,10.00
2023-01-17T00:57:21.073Z,8.90
2023-01-17T00:58:21.052Z,9.30
2023-01-17T00:59:21.075Z,9.00
2023-01-17T01:00:21.036Z,9.90
2023-01-17T01:01:21.136Z,9.50
2023-01-17T01:02:21.053Z,9.30
2023-01-17T01:03:21.003Z,9.00
2023-01-17T01:04:21.014Z,9.70
2023-01-17T01:05:20.982Z,8.80
2023-01-17T01:06:20.967Z,9.70
2023-01-17T01:07:20.957Z,9.50
2023-01-17T01:08:20.941Z,9.70
2023-01-17T01:09:20.959Z,9.40
2023-01-17T01:10:20.926Z,10.50
2023-01-17T01:11:20.915Z,9.50
2023-01-17T01:12:20.913Z,9.30
2023-01-17T01:13:20.892Z,9.90
2023-01-17T01:14:20.908Z,9.20
2023-01-17T01:15:20.864Z,9.20
2023-01-17T01:16:20.927Z,9.00
2023-01-17T01:17:20.852Z,8.90
2023-01-17T01:18:20.928Z,9.90
2023-01-17T01:19:20.849Z,9.90
2023-01-17T01:20:20.836Z,9.20
2023-01-17T01:21:20.800Z,8.50
2023-01-17T01:22:20.804Z,7.80
2023-01-17T01:23:20.777Z,8.50
2023-01-17T01:24:20.833Z,7.30
2023-01-17T01:25:20.757Z,7.20
2023-01-17T01:26:20.745Z,7.90
2023-01-17T01:27:20.727Z,7.10
2023-01-17T01:28:20.732Z,7.00
2023-01-17T01:29:20.728Z,6.70
2023-01-17T01:30:20.714Z,6.90
2023-01-17T01:31:20.771Z,7.50
2023-01-17T01:32:20.684Z,6.40
2023-01-17T01:33:20.707Z,6.50
2023-01-17T01:34:20.687Z,6.30
2023-01-17T01:35:20.658Z,6.70
2023-01-17T01:36:20.642Z,6.30
2023-01-17T01:37:20.616Z,6.30
2023-01-17T01:38:20.610Z,6.20
2023-01-17T01:39:20.618Z,6.80
2023-01-17T01:40:20.601Z,7.20
2023-01-17T01:41:20.571Z,5.90
2023-01-17T01:42:20.575Z,5.60
2023-01-17T01:43:20.553Z,5.80
2023-01-17T01:44:20.570Z,5.50
2023-01-17T01:45:20.560Z,6.40
2023-01-17T01:46:20.528Z,5.50
2023-01-17T01:47:20.508Z,5.40
2023-01-17T01:48:20.509Z,5.10
2023-01-17T01:49:20.504Z,5.30
2023-01-17T01:50:20.474Z,5.20
2023-01-17T01:51:20.468Z,5.70
2023-01-17T01:52:20.453Z,5.30
2023-01-17T01:53:20.442Z,5.10
2023-01-17T01:54:20.460Z,5.20
2023-01-17T01:55:20.437Z,5.20
2023-01-17T01:56:20.409Z,5.10
2023-01-17T01:57:20.419Z,4.90
2023-01-17T01:58:20.380Z,5.70
2023-01-17T01:59:20.395Z,4.90
2023-01-17T02:00:20.356Z,4.50
2023-01-17T02:01:20.443Z,4.30
2023-01-17T02:02:20.334Z,5.30
2023-01-17T02:03:20.332Z,4.30
2023-01-17T02:04:20.339Z,4.00
2023-01-17T02:05:20.307Z,4.20
2023-01-17T02:06:20.300Z,4.10
2023-01-17T02:07:20.287Z,3.80
2023-01-17T02:08:20.288Z,4.10
2023-01-17T02:09:20.281Z,3.80
2023-01-17T02:10:20.248Z,3.30
2023-01-17T02:11:20.245Z,4.30
2023-01-17T02:12:20.232Z,3.50
2023-01-17T02:13:20.229Z,4.00
2023-01-17T02:14:20.231Z,3.70
2023-01-17T02:15:20.203Z,3.80
2023-01-17T02:16:20.200Z,3.90
2023-01-17T02:17:20.176Z,3.70
2023-01-17T02:18:20.163Z,3.30
2023-01-17T02:19:20.177Z,3.10
2023-01-17T02:20:20.150Z,3.70
2023-01-17T02:21:20.136Z,3.70
2023-01-17T02:22:20.116Z,3.10
2023-01-17T02:23:20.110Z,4.00
2023-01-17T02:24:20.123Z,3.10
2023-01-17T02:25:20.093Z,2.60
2023-01-17T02:26:20.075Z,2.50
2023-01-17T02:27:20.065Z,2.50
2023-01-17T02:28:20.052Z,2.00
2023-01-17T02:29:20.067Z,1.40
2023-01-17T02:30:20.028Z,2.00
2023-01-17T02:31:20.024Z,1.60
2023-01-17T02:32:20.004Z,1.60
2023-01-17T02:33:19.999Z,2.20
2023-01-17T02:34:20.000Z,1.60
2023-01-17T02:35:19.975Z,2.10
2023-01-17T02:36:19.963Z,1.20
2023-01-17T02:37:19.952Z,1.60
2023-01-17T02:38:19.951Z,1.10
2023-01-17T02:39:19.951Z,2.10
2023-01-17T02:40:19.924Z,1.00
2023-01-17T02:41:19.906Z,1.50
2023-01-17T02:42:19.894Z,1.80
2023-01-17T02:43:19.885Z,1.40
2023-01-17T02:44:19.997Z,1.20
2023-01-17T02:45:19.861Z,2.80
2023-01-17T02:46:19.848Z,0.70
2023-01-17T02:47:19.834Z,2.10
2023-01-17T02:48:19.827Z,1.90
2023-01-17T02:49:19.836Z,2.40
2023-01-17T02:50:19.805Z,2.80
2023-01-17T02:51:19.787Z,1.90
2023-01-17T02:52:19.787Z,2.30
2023-01-17T02:53:19.765Z,3.30
2023-01-17T02:54:19.786Z,4.30
2023-01-17T02:55:19.766Z,3.20
2023-01-17T02:56:19.731Z,1.80
2023-01-17T02:57:19.734Z,2.60
2023-01-17T02:58:19.716Z,1.90
2023-01-17T02:59:19.729Z,1.70
2023-01-17T03:00:19.696Z,1.50
2023-01-17T03:01:19.821Z,1.10
2023-01-17T03:02:19.730Z,1.70
2023-01-17T03:03:19.660Z,1.30
2023-01-17T03:04:19.666Z,2.30
2023-01-17T03:05:20.441Z,0.90
2023-01-17T03:06:19.625Z,0.60
2023-01-17T03:07:19.621Z,1.50
2023-01-17T03:08:19.611Z,1.80
2023-01-17T03:09:19.621Z,3.60
2023-01-17T03:10:19.578Z,1.80
2023-01-17T03:11:19.573Z,1.00
2023-01-17T03:12:19.557Z,2.40
2023-01-17T03:13:19.551Z,1.30
2023-01-17T03:14:19.558Z,1.60
2023-01-17T03:15:19.526Z,1.30
2023-01-17T03:16:19.535Z,0.90
2023-01-17T03:17:19.506Z,1.90
2023-01-17T03:18:19.500Z,0.70
2023-01-17T03:19:19.515Z,1.40
2023-01-17T03:20:22.271Z,1.30
2023-01-17T03:21:19.461Z,1.00
2023-01-17T03:22:19.453Z,1.10
2023-01-17T03:23:19.449Z,1.10
2023-01-17T03:24:19.449Z,2.20
2023-01-17T03:25:19.417Z,0.80
2023-01-17T03:26:19.395Z,1.00
2023-01-17T03:27:19.419Z,1.20
2023-01-17T03:28:19.382Z,0.30
2023-01-17T03:29:19.400Z,1.30
2023-01-17T03:30:19.355Z,1.30
2023-01-17T03:31:19.343Z,1.60
2023-01-17T03:32:19.342Z,0.80
2023-01-17T03:33:19.329Z,1.30
2023-01-17T03:34:19.350Z,1.40
2023-01-17T03:35:19.329Z,1.50
2023-01-17T03:36:19.287Z,0.50
2023-01-17T03:37:19.276Z,1.00
2023-01-17T03:38:19.268Z,1.70
2023-01-17T03:39:19.279Z,1.40
2023-01-17T03:40:19.253Z,1.10
2023-01-17T03:41:19.245Z,1.60
2023-01-17T03:42:19.226Z,2.10
2023-01-17T03:43:19.211Z,0.90
2023-01-17T03:44:19.244Z,1.60
2023-01-17T03:45:19.208Z,0.80
2023-01-17T03:46:19.181Z,1.00
2023-01-17T03:47:19.168Z,1.60
2023-01-17T03:48:19.154Z,1.00
2023-01-17T03:49:19.177Z,1.30
2023-01-17T03:50:19.134Z,1.50
2023-01-17T03:51:19.163Z,0.60
2023-01-17T03:52:19.104Z,0.90
2023-01-17T03:53:19.112Z,2.40
2023-01-17T03:54:19.110Z,1.20
2023-01-17T03:55:19.074Z,0.90
2023-01-17T03:56:19.065Z,0.90
2023-01-17T03:57:19.053Z,0.40
2023-01-17T03:58:19.046Z,0.90
2023-01-17T03:59:19.057Z,1.30
2023-01-17T04:00:19.033Z,1.00
2023-01-17T04:01:19.116Z,0.70
2023-01-17T04:02:19.019Z,1.70
2023-01-17T04:03:18.988Z,1.10
2023-01-17T04:04:18.995Z,1.10
2023-01-17T04:05:18.957Z,0.70
2023-01-17T04:06:18.952Z,1.50
2023-01-17T04:07:18.954Z,0.70
2023-01-17T04:08:18.944Z,1.60
2023-01-17T04:09:18.949Z,1.90
2023-01-17T04:10:18.911Z,1.40
2023-01-17T04:11:18.896Z,1.70
2023-01-17T04:12:18.893Z,0.60
2023-01-17T04:13:18.894Z,2.10
2023-01-17T04:14:18.893Z,2.10
2023-01-17T04:15:18.843Z,1.60
2023-01-17T04:16:18.918Z,1.10
2023-01-17T04:17:18.837Z,2.00
2023-01-17T04:18:18.838Z,1.30
2023-01-17T04:19:18.820Z,1.50
2023-01-17T04:20:18.805Z,2.60
2023-01-17T04:21:18.786Z,2.80
2023-01-17T04:22:18.778Z,2.20
2023-01-17T04:23:18.772Z,0.70
2023-01-17T04:24:18.777Z,1.00
2023-01-17T04:25:18.754Z,1.40
2023-01-17T04:26:18.729Z,1.30
2023-01-17T04:27:18.723Z,1.20
2023-01-17T04:28:18.717Z,2.00
2023-01-17T04:29:18.712Z,1.00
2023-01-17T04:30:18.701Z,2.00
2023-01-17T04:31:18.719Z,1.80
2023-01-17T04:32:18.662Z,2.90
2023-01-17T04:33:18.659Z,3.10
2023-01-17T04:34:18.681Z,1.50
2023-01-17T04:35:18.622Z,2.90
2023-01-17T04:36:18.613Z,1.20
2023-01-17T04:37:18.628Z,1.60
2023-01-17T04:38:18.593Z,1.80
2023-01-17T04:39:18.595Z,2.70
2023-01-17T04:40:18.584Z,1.90
2023-01-17T04:41:18.551Z,1.30
2023-01-17T04:42:18.559Z,1.60
2023-01-17T04:43:18.534Z,2.10
2023-01-17T04:44:18.548Z,0.90
2023-01-17T04:45:18.515Z,2.90
2023-01-17T04:46:18.526Z,2.60
2023-01-17T04:47:18.511Z,1.60
2023-01-17T04:48:18.489Z,1.80
2023-01-17T04:49:18.492Z,1.80
2023-01-17T04:50:18.468Z,1.80
2023-01-17T04:51:18.462Z,3.30
2023-01-17T04:52:18.439Z,2.60
2023-01-17T04:53:18.421Z,1.70
2023-01-17T04:54:18.442Z,3.30
2023-01-17T04:55:18.406Z,4.20
2023-01-17T04:56:18.383Z,3.20
2023-01-17T04:57:18.386Z,3.50
2023-01-17T04:58:18.368Z,3.30
2023-01-17T04:59:18.383Z,2.30
2023-01-17T05:00:18.342Z,4.10
2023-01-17T05:01:18.429Z,4.40
2023-01-17T05:02:18.390Z,5.90
2023-01-17T05:03:18.311Z,3.90
2023-01-17T05:04:18.322Z,5.30
2023-01-17T05:05:18.290Z,3.40
2023-01-17T05:06:18.276Z,5.80
2023-01-17T05:07:18.273Z,5.80
2023-01-17T05:08:18.251Z,5.70
2023-01-17T05:09:18.267Z,5.00
2023-01-17T05:10:18.230Z,3.80
2023-01-17T05:11:18.240Z,5.70
2023-01-17T05:12:18.204Z,4.70
2023-01-17T05:13:18.204Z,5.30
2023-01-17T05:14:18.210Z,5.50
2023-01-17T05:15:18.229Z,5.30
2023-01-17T05:16:18.298Z,4.60
2023-01-17T05:17:18.167Z,5.80
2023-01-17T05:18:18.146Z,4.20
2023-01-17T05:19:20.855Z,6.40
2023-01-17T05:20:18.177Z,6.80
2023-01-17T05:21:18.146Z,6.40
2023-01-17T05:22:18.129Z,6.00
2023-01-17T05:23:18.114Z,6.70
2023-01-17T05:24:18.117Z,5.60
2023-01-17T05:25:18.081Z,6.40
2023-01-17T05:26:18.052Z,7.10
2023-01-17T05:27:18.038Z,6.30
2023-01-17T05:28:18.021Z,6.80
2023-01-17T05:29:18.050Z,5.60
2023-01-17T05:30:18.002Z,6.30
2023-01-17T05:31:18.043Z,8.20
2023-01-17T05:32:17.979Z,7.20
2023-01-17T05:33:17.977Z,7.20
2023-01-17T05:34:17.989Z,7.60
2023-01-17T05:35:17.954Z,6.90
2023-01-17T05:36:19.763Z,6.10
2023-01-17T05:37:17.935Z,9.00
2023-01-17T05:38:17.913Z,9.70
2023-01-17T05:39:17.933Z,8.20
2023-01-17T05:40:17.888Z,5.30
2023-01-17T05:41:17.886Z,7.10
2023-01-17T05:42:17.870Z,6.70
2023-01-17T05:43:17.861Z,7.70
2023-01-17T05:44:17.877Z,8.40
2023-01-17T05:45:17.837Z,7.40
2023-01-17T05:46:17.927Z,8.00
2023-01-17T05:47:17.816Z,7.90
2023-01-17T05:48:17.800Z,9.30
2023-01-17T05:49:17.817Z,7.50
2023-01-17T05:50:17.780Z,10.20
2023-01-17T05:51:17.781Z,8.20
2023-01-17T05:52:17.756Z,8.60
2023-01-17T05:53:17.783Z,10.30
2023-01-17T05:54:17.760Z,9.80
2023-01-17T05:55:17.725Z,6.60
2023-01-17T05:56:17.716Z,8.80
2023-01-17T05:57:17.698Z,8.10
2023-01-17T05:58:17.716Z,10.80
2023-01-17T05:59:25.620Z,9.50
2023-01-17T06:00:17.685Z,12.60
2023-01-17T06:01:17.700Z,9.90
2023-01-17T06:02:17.683Z,8.60
2023-01-17T06:03:17.631Z,10.60
2023-01-17T06:04:17.682Z,10.50
2023-01-17T06:05:17.632Z,7.90
2023-01-17T06:06:17.612Z,11.00
2023-01-17T06:07:17.590Z,10.60
2023-01-17T06:08:17.579Z,11.30
2023-01-17T06:09:17.585Z,11.80
2023-01-17T06:10:17.555Z,9.90
2023-01-17T06:11:17.540Z,9.50
2023-01-17T06:12:17.544Z,8.20
2023-01-17T06:13:17.518Z,12.50
2023-01-17T06:14:17.531Z,7.90
2023-01-17T06:15:17.499Z,10.50
2023-01-17T06:16:17.533Z,8.70
2023-01-17T06:17:17.475Z,9.80
2023-01-17T06:18:17.480Z,9.50
2023-01-17T06:19:17.474Z,10.20
2023-01-17T06:20:17.449Z,8.30
2023-01-17T06:21:17.427Z,11.10
2023-01-17T06:22:17.429Z,8.40
2023-01-17T06:23:17.407Z,10.70
2023-01-17T06:24:17.428Z,8.70
2023-01-17T06:25:17.387Z,8.80
2023-01-17T06:26:17.381Z,8.40
2023-01-17T06:27:17.372Z,8.90
2023-01-17T06:28:17.472Z,9.10
2023-01-17T06:29:17.432Z,9.50
2023-01-17T06:30:17.370Z,9.50
2023-01-17T06:31:17.337Z,8.20
2023-01-17T06:32:17.318Z,9.10
2023-01-17T06:33:17.293Z,11.30
2023-01-17T06:34:17.323Z,9.20
2023-01-17T06:35:17.275Z,7.60
2023-01-17T06:36:17.274Z,9.40
2023-01-17T06:37:17.250Z,8.40
2023-01-17T06:38:17.248Z,6.30
2023-01-17T06:39:17.248Z,6.50
2023-01-17T06:40:17.218Z,9.70
2023-01-17T06:41:17.204Z,9.20
2023-01-17T06:42:17.194Z,9.10
2023-01-17T06:43:17.180Z,9.70
2023-01-17T06:44:17.199Z,9.50
2023-01-17T06:45:17.168Z,6.60
2023-01-17T06:46:17.183Z,7.50
2023-01-17T06:47:17.138Z,6.80
2023-01-17T06:48:17.142Z,8.00
2023-01-17T06:49:17.140Z,7.40
2023-01-17T06:50:17.108Z,9.40
2023-01-17T06:51:17.106Z,9.10
2023-01-17T06:52:17.085Z,6.90
2023-01-17T06:53:17.092Z,8.40
2023-01-17T06:54:17.078Z,7.10
2023-01-17T06:55:17.061Z,8.50
2023-01-17T06:56:17.054Z,7.70
2023-01-17T06:57:17.022Z,10.60
2023-01-17T06:58:17.027Z,7.10
2023-01-17T06:59:17.024Z,7.90
2023-01-17T07:00:17.002Z,7.90
2023-01-17T07:01:17.055Z,9.50
2023-01-17T07:02:16.970Z,9.40
2023-01-17T07:03:17.009Z,7.90
2023-01-17T07:04:16.982Z,11.20
2023-01-17T07:05:16.936Z,8.50
2023-01-17T07:06:16.925Z,9.50
2023-01-17T07:07:16.927Z,7.30
2023-01-17T07:08:16.945Z,9.70
2023-01-17T07:09:16.909Z,8.00
2023-01-17T07:10:16.893Z,9.30
2023-01-17T07:11:16.862Z,8.20
2023-01-17T07:12:16.862Z,8.20
2023-01-17T07:13:16.848Z,9.60
2023-01-17T07:14:16.856Z,9.60
2023-01-17T07:15:16.820Z,9.80
2023-01-17T07:16:16.883Z,8.40
2023-01-17T07:17:16.799Z,8.50
2023-01-17T07:18:16.797Z,10.80
2023-01-17T07:19:16.805Z,10.60
2023-01-17T07:20:16.773Z,11.10
2023-01-17T07:21:16.759Z,9.50
2023-01-17T07:22:16.752Z,12.30
2023-01-17T07:23:16.734Z,12.60
2023-01-17T07:24:16.762Z,10.40
2023-01-17T07:25:16.706Z,12.60
2023-01-17T07:26:16.711Z,14.60
2023-01-17T07:27:16.684Z,12.00
2023-01-17T07:28:16.680Z,10.90
2023-01-17T07:29:16.704Z,13.10
2023-01-17T07:30:16.672Z,17.10
2023-01-17T07:31:16.767Z,12.30
2023-01-17T07:32:16.636Z,12.30
2023-01-17T07:33:16.624Z,13.60
2023-01-17T07:34:16.637Z,12.30
2023-01-17T07:35:16.601Z,17.50
2023-01-17T07:36:16.612Z,14.60
2023-01-17T07:37:16.576Z,13.00
2023-01-17T07:38:16.566Z,14.50
2023-01-17T07:39:16.572Z,14.80
2023-01-17T07:40:16.560Z,15.90
2023-01-17T07:41:16.534Z,15.20
2023-01-17T07:42:16.549Z,15.10
2023-01-17T07:43:16.548Z,15.30
2023-01-17T07:44:16.520Z,16.20
2023-01-17T07:45:16.513Z,14.10
2023-01-17T07:46:16.513Z,13.40
2023-01-17T07:47:16.542Z,14.00
2023-01-17T07:48:16.460Z,14.90
2023-01-17T07:49:16.474Z,11.70
2023-01-17T07:50:16.433Z,14.50
2023-01-17T07:51:16.420Z,14.50
2023-01-17T07:52:18.227Z,15.20
2023-01-17T07:53:16.437Z,13.40
2023-01-17T07:54:16.419Z,15.00
2023-01-17T07:55:16.378Z,14.00
2023-01-17T07:56:16.356Z,13.50
2023-01-17T07:57:16.366Z,11.20
2023-01-17T07:58:16.333Z,17.50
2023-01-17T07:59:16.350Z,13.70
2023-01-17T08:00:16.317Z,12.10
2023-01-17T08:01:16.487Z,15.60
2023-01-17T08:02:16.296Z,14.20
2023-01-17T08:03:16.283Z,14.80
2023-01-17T08:04:16.391Z,14.00
2023-01-17T08:05:16.282Z,13.80
2023-01-17T08:06:16.248Z,13.80
2023-01-17T08:07:16.247Z,12.40
2023-01-17T08:08:17.850Z,12.00
2023-01-17T08:09:16.238Z,11.10
2023-01-17T08:10:16.203Z,16.10
2023-01-17T08:11:16.208Z,13.50
2023-01-17T08:12:16.179Z,15.00
2023-01-17T08:13:16.178Z,12.60
2023-01-17T08:14:16.181Z,13.00
2023-01-17T08:15:16.156Z,13.60
2023-01-17T08:16:16.172Z,14.70
2023-01-17T08:17:16.142Z,14.30
2023-01-17T08:18:16.116Z,15.40
2023-01-17T08:19:16.131Z,13.00
2023-01-17T08:20:16.099Z,13.90
2023-01-17T08:21:16.149Z,13.30
2023-01-17T08:22:16.067Z,12.50
2023-01-17T08:23:16.063Z,13.70
2023-01-17T08:24:16.073Z,14.30
2023-01-17T08:25:16.037Z,14.90
2023-01-17T08:26:16.029Z,15.00
2023-01-17T08:27:16.016Z,14.90
2023-01-17T08:28:16.005Z,15.40
2023-01-17T08:29:16.014Z,16.00
2023-01-17T08:30:15.990Z,15.30
2023-01-17T08:31:15.996Z,16.80
2023-01-17T08:32:15.961Z,15.30
2023-01-17T08:33:15.952Z,14.50
2023-01-17T08:34:15.977Z,15.60
2023-01-17T08:35:15.941Z,13.50
2023-01-17T08:36:15.914Z,15.60
2023-01-17T08:37:15.909Z,16.90
2023-01-17T08:38:15.891Z,14.30
2023-01-17T08:39:15.905Z,17.60
2023-01-17T08:40:15.867Z,14.50
2023-01-17T08:41:15.860Z,16.80
2023-01-17T08:42:15.843Z,15.90
2023-01-17T08:43:15.840Z,13.80
2023-01-17T08:44:15.865Z,14.40
2023-01-17T08:45:15.825Z,12.50
2023-01-17T08:46:15.844Z,15.10
2023-01-17T08:47:15.792Z,17.80
2023-01-17T08:48:15.807Z,14.70
2023-01-17T08:49:15.796Z,12.60
2023-01-17T08:50:15.776Z,13.70
2023-01-17T08:51:15.749Z,14.60
2023-01-17T08:52:15.735Z,15.50
2023-01-17T08:53:15.858Z,16.60
2023-01-17T08:54:15.732Z,12.30
2023-01-17T08:55:15.710Z,14.00
2023-01-17T08:56:15.694Z,14.20
2023-01-17T08:57:15.678Z,15.00
2023-01-17T08:58:15.669Z,16.20
2023-01-17T08:59:15.679Z,15.30
2023-01-17T09:00:15.656Z,13.60
2023-01-17T09:01:15.752Z,16.00
2023-01-17T09:02:15.628Z,17.00
2023-01-17T09:03:16.222Z,17.50
2023-01-17T09:04:15.707Z,14.20
2023-01-17T09:05:15.593Z,14.60
2023-01-17T09:06:15.580Z,14.90
2023-01-17T09:07:15.560Z,15.50
2023-01-17T09:08:15.559Z,14.60
2023-01-17T09:09:15.565Z,16.90
2023-01-17T09:10:15.552Z,13.20
2023-01-17T09:11:15.525Z,13.20
2023-01-17T09:12:15.516Z,15.20
2023-01-17T09:13:15.498Z,15.20
2023-01-17T09:14:15.545Z,13.80
2023-01-17T09:15:15.480Z,15.80
2023-01-17T09:16:15.544Z,12.20
2023-01-17T09:17:15.457Z,15.60
2023-01-17T09:18:15.445Z,17.60
2023-01-17T09:19:15.463Z,13.90
2023-01-17T09:20:15.423Z,13.00
2023-01-17T09:21:15.407Z,13.60
2023-01-17T09:22:15.415Z,12.90
2023-01-17T09:23:15.381Z,16.30
2023-01-17T09:24:15.401Z,17.00
2023-01-17T09:25:15.369Z,11.90
2023-01-17T09:26:15.354Z,15.90
2023-01-17T09:27:15.339Z,11.80
2023-01-17T09:28:15.329Z,16.00
2023-01-17T09:29:15.335Z,14.20
2023-01-17T09:30:15.331Z,15.50
2023-01-17T09:31:17.367Z,14.80
2023-01-17T09:32:15.289Z,16.10
2023-01-17T09:33:15.263Z,14.70
2023-01-17T09:34:15.285Z,16.00
2023-01-17T09:35:15.253Z,15.20
2023-01-17T09:36:15.259Z,17.70
2023-01-17T09:37:15.225Z,13.90
2023-01-17T09:38:15.228Z,17.40
2023-01-17T09:39:15.271Z,15.60
2023-01-17T09:40:15.210Z,14.70
2023-01-17T09:41:15.223Z,15.30
2023-01-17T09:42:15.191Z,17.30
2023-01-17T09:43:15.169Z,19.70
2023-01-17T09:44:15.189Z,15.30
2023-01-17T09:45:15.143Z,19.80
2023-01-17T09:46:15.188Z,18.50
2023-01-17T09:47:15.139Z,17.60
2023-01-17T09:48:15.112Z,18.20
2023-01-17T09:49:15.129Z,22.20
2023-01-17T09:50:15.085Z,19.10
2023-01-17T09:51:15.069Z,19.70
2023-01-17T09:52:15.063Z,19.10
2023-01-17T09:53:15.047Z,19.80
2023-01-17T09:54:15.067Z,21.20
2023-01-17T09:55:15.027Z,18.60
2023-01-17T09:56:15.017Z,18.70
2023-01-17T09:57:15.011Z,22.80
2023-01-17T09:58:14.991Z,19.60
2023-01-17T09:59:18.538Z,18.70
2023-01-17T10:00:14.978Z,23.60
2023-01-17T10:01:15.123Z,20.30
2023-01-17T10:02:15.147Z,21.50
2023-01-17T10:03:15.065Z,25.30
2023-01-17T10:04:15.034Z,22.70
2023-01-17T10:05:14.925Z,22.90
2023-01-17T10:06:14.894Z,23.50
2023-01-17T10:07:14.887Z,22.20
2023-01-17T10:08:14.874Z,22.60
2023-01-17T10:09:14.905Z,25.10
2023-01-17T10:10:14.856Z,25.40
2023-01-17T10:11:14.848Z,23.30
2023-01-17T10:12:14.834Z,22.40
2023-01-17T10:13:14.819Z,25.40
2023-01-17T10:14:14.840Z,24.10
2023-01-17T10:15:14.801Z,26.80
2023-01-17T10:16:14.834Z,26.60
2023-01-17T10:17:14.783Z,25.00
2023-01-17T10:18:28.920Z,27.10
2023-01-17T10:19:14.791Z,28.10
2023-01-17T10:20:14.737Z,24.40
2023-01-17T10:21:14.733Z,31.10
2023-01-17T10:22:14.726Z,26.50
2023-01-17T10:23:14.708Z,28.20
2023-01-17T10:24:14.716Z,25.90
2023-01-17T10:25:14.706Z,28.80
2023-01-17T10:26:14.675Z,26.40
2023-01-17T10:27:14.676Z,29.30
2023-01-17T10:28:14.657Z,26.80
2023-01-17T10:29:14.667Z,25.10
2023-01-17T10:30:14.629Z,28.80
2023-01-17T10:31:14.688Z,23.90
2023-01-17T10:32:14.609Z,27.50
2023-01-17T10:33:14.617Z,27.90
2023-01-17T10:34:14.638Z,27.00
2023-01-17T10:35:15.698Z,31.60
2023-01-17T10:36:14.559Z,28.90
2023-01-17T10:37:14.555Z,30.90
2023-01-17T10:38:14.541Z,28.70
2023-01-17T10:39:14.585Z,30.20
2023-01-17T10:40:14.513Z,27.30
2023-01-17T10:41:14.555Z,28.40
2023-01-17T10:42:14.492Z,30.70
2023-01-17T10:43:14.483Z,30.70
2023-01-17T10:44:14.494Z,32.60
2023-01-17T10:45:14.464Z,33.10
2023-01-17T10:46:14.512Z,28.40
2023-01-17T10:47:14.447Z,29.60
2023-01-17T10:48:14.440Z,30.90
2023-01-17T10:49:14.451Z,28.50
2023-01-17T10:50:14.408Z,35.30
2023-01-17T10:51:14.495Z,31.00
2023-01-17T10:52:14.387Z,30.90
2023-01-17T10:53:14.384Z,33.80
2023-01-17T10:54:14.381Z,34.30
2023-01-17T10:55:14.346Z,29.60
2023-01-17T10:56:14.353Z,32.00
2023-01-17T10:57:14.323Z,28.00
2023-01-17T10:58:14.324Z,29.80
2023-01-17T10:59:14.328Z,31.00
2023-01-17T11:00:14.294Z,31.50
2023-01-17T11:01:14.384Z,28.60
2023-01-17T11:02:14.366Z,31.70
2023-01-17T11:03:14.270Z,30.10
2023-01-17T11:04:14.271Z,29.80
2023-01-17T11:05:14.261Z,27.50
2023-01-17T11:06:14.225Z,30.70
2023-01-17T11:07:14.219Z,32.00
2023-01-17T11:08:14.205Z,29.20
2023-01-17T11:09:14.220Z,30.80
2023-01-17T11:10:14.177Z,34.70
2023-01-17T11:11:14.172Z,32.30
2023-01-17T11:12:14.158Z,28.30
2023-01-17T11:13:14.155Z,32.10
2023-01-17T11:14:14.172Z,30.60
2023-01-17T11:15:14.127Z,32.10
2023-01-17T11:16:14.109Z,29.10
2023-01-17T11:17:14.109Z,31.80
2023-01-17T11:18:14.090Z,30.90
2023-01-17T11:19:14.111Z,27.70
2023-01-17T11:20:14.066Z,29.30
2023-01-17T11:21:14.069Z,31.00
2023-01-17T11:22:14.046Z,30.90
2023-01-17T11:23:14.040Z,29.80
2023-01-17T11:24:14.044Z,29.60
2023-01-17T11:25:14.023Z,31.60
2023-01-17T11:26:13.997Z,26.70
2023-01-17T11:27:13.997Z,30.60
2023-01-17T11:28:13.977Z,30.30
2023-01-17T11:29:13.995Z,29.80
2023-01-17T11:30:13.959Z,29.80
2023-01-17T11:31:13.971Z,29.50
2023-01-17T11:32:13.932Z,27.80
2023-01-17T11:33:13.927Z,28.80
2023-01-17T11:34:14.007Z,25.20
2023-01-17T11:35:13.897Z,26.80
2023-01-17T11:36:13.883Z,28.30
2023-01-17T11:37:13.884Z,28.50
2023-01-17T11:38:13.878Z,26.50
2023-01-17T11:39:13.879Z,29.10
2023-01-17T11:40:13.841Z,26.60
2023-01-17T11:41:13.836Z,29.30
2023-01-17T11:42:13.814Z,26.00
2023-01-17T11:43:13.812Z,26.70
2023-01-17T11:44:13.817Z,26.70
2023-01-17T11:45:13.791Z,28.40
2023-01-17T11:46:13.816Z,26.20
2023-01-17T11:47:13.771Z,27.70
2023-01-17T11:48:13.777Z,25.50
2023-01-17T11:49:13.769Z,28.00
2023-01-17T11:50:13.738Z,25.80
2023-01-17T11:51:13.723Z,26.00
2023-01-17T11:52:13.708Z,28.60
2023-01-17T11:53:13.713Z,27.30
2023-01-17T11:54:13.706Z,26.50
2023-01-17T11:55:13.669Z,27.20
2023-01-17T11:56:13.673Z,22.30
2023-01-17T11:57:13.650Z,26.00
2023-01-17T11:58:13.695Z,25.10
2023-01-17T11:59:13.653Z,27.80
2023-01-17T12:00:13.723Z,26.00
2023-01-17T12:01:13.759Z,26.10
2023-01-17T12:02:13.691Z,26.60
2023-01-17T12:03:13.639Z,22.90
2023-01-17T12:04:13.664Z,25.70
2023-01-17T12:05:13.628Z,25.60
2023-01-17T12:06:13.551Z,30.80
2023-01-17T12:07:13.537Z,27.90
2023-01-17T12:08:13.544Z,28.10
2023-01-17T12:09:13.576Z,26.30
2023-01-17T12:10:13.505Z,26.00
2023-01-17T12:11:13.545Z,28.20
2023-01-17T12:12:13.574Z,25.80
2023-01-17T12:13:13.491Z,27.70
2023-01-17T12:14:13.532Z,27.70
2023-01-17T12:15:13.489Z,29.30
2023-01-17T12:16:13.528Z,28.20
2023-01-17T12:17:13.439Z,26.40
2023-01-17T12:18:13.413Z,29.30
2023-01-17T12:19:13.453Z,27.20
2023-01-17T12:20:13.440Z,28.10
2023-01-17T12:21:13.384Z,26.80
2023-01-17T12:22:13.419Z,25.10
2023-01-17T12:23:13.459Z,28.00
2023-01-17T12:24:13.383Z,29.40
2023-01-17T12:25:13.347Z,27.20
2023-01-17T12:26:13.322Z,24.20
2023-01-17T12:27:13.307Z,27.10
2023-01-17T12:28:13.450Z,22.20
2023-01-17T12:29:13.375Z,23.30
2023-01-17T12:30:13.279Z,26.50
2023-01-17T12:31:13.292Z,27.10
2023-01-17T12:32:13.255Z,25.40
2023-01-17T12:33:13.243Z,25.10
2023-01-17T12:34:13.279Z,23.40
2023-01-17T12:35:13.259Z,23.60
2023-01-17T12:36:13.228Z,24.70
2023-01-17T12:37:13.209Z,24.30
2023-01-17T12:38:27.396Z,26.90
2023-01-17T12:39:13.229Z,22.70
2023-01-17T12:40:13.264Z,25.80
2023-01-17T12:41:13.190Z,27.90
2023-01-17T12:42:13.156Z,25.40
2023-01-17T12:43:13.145Z,25.30
2023-01-17T12:44:13.270Z,27.20
2023-01-17T12:45:13.119Z,22.80
2023-01-17T12:46:13.214Z,25.70
2023-01-17T12:47:13.129Z,25.10
2023-01-17T12:48:13.081Z,22.60
2023-01-17T12:49:13.132Z,25.30
2023-01-17T12:50:13.072Z,22.20
2023-01-17T12:51:13.091Z,20.60
2023-01-17T12:52:13.076Z,20.50
2023-01-17T12:53:13.016Z,21.40
2023-01-17T12:54:13.052Z,23.20
2023-01-17T12:55:13.333Z,22.60
2023-01-17T12:56:12.985Z,20.80
2023-01-17T12:57:14.099Z,22.40
2023-01-17T12:58:12.963Z,20.70
2023-01-17T12:59:13.001Z,23.40
2023-01-17T13:00:13.106Z,22.70
2023-01-17T13:01:13.041Z,24.70
2023-01-17T13:02:13.034Z,21.70
2023-01-17T13:03:12.912Z,20.00
2023-01-17T13:04:13.048Z,21.70
2023-01-17T13:05:12.965Z,21.90